Western Head, Canada
Current Conditions -  °F | °C
As of 4:00 AM on Saturday 25 Oct 2014 (Local Time) from CYZX Reporting Station
Drizzle Drizzle  
Wind Chill: 45°   Ceiling: 1400
Heat Index: 48°   Visibility: 5mi
Dew Point: 46°   Wind: 7mph
Humidity: 93%   Direction: 330°NNW
Pressure: 29.5"   Gusts: NA
Location:  43.99°N, 64.68°W
Report Text: CYZX 250700Z 33006KT 5SM -DZ BR FEW009 BKN014 OVC018 09/08 A2950 RMK SF2SC5SC2 WNDY HILL UNAVBL SLP990
Loading
Personal Weather Stations






























Interactive Weather Map New forecast layout! Learn more

10-Day Weather Forecast

Advertisements
Track Severe Weather on mobile